createdAt,value
2023-05-19T00:02:09.354Z,5.32
2023-05-19T00:04:37.059Z,6.10
2023-05-19T00:07:05.497Z,5.50
2023-05-19T00:09:32.425Z,5.50
2023-05-19T00:11:59.348Z,5.82
2023-05-19T00:14:26.374Z,6.20
2023-05-19T00:16:53.407Z,5.90
2023-05-19T00:19:20.241Z,5.68
2023-05-19T00:21:47.118Z,5.35
2023-05-19T00:24:13.832Z,5.50
2023-05-19T00:26:40.618Z,6.13
2023-05-19T00:29:07.629Z,5.88
2023-05-19T00:31:34.540Z,6.50
2023-05-19T00:34:01.855Z,6.75
2023-05-19T00:36:28.857Z,6.13
2023-05-19T00:41:22.910Z,5.95
2023-05-19T00:43:50.945Z,6.40
2023-05-19T00:46:19.156Z,6.32
2023-05-19T00:48:46.041Z,6.93
2023-05-19T00:51:16.749Z,6.63
2023-05-19T00:53:48.577Z,6.90
2023-05-19T00:56:19.150Z,7.53
2023-05-19T00:58:46.498Z,7.00
2023-05-19T01:03:43.442Z,6.90
2023-05-19T01:06:12.197Z,6.57
2023-05-19T01:08:39.453Z,7.60
2023-05-19T01:11:07.406Z,7.20
2023-05-19T01:13:35.713Z,7.30
2023-05-19T01:16:30.729Z,8.50
2023-05-19T01:19:36.849Z,7.68
2023-05-19T01:22:27.483Z,7.75
2023-05-19T01:25:06.995Z,8.20
2023-05-19T01:28:11.304Z,7.43
2023-05-19T01:30:45.248Z,7.80
2023-05-19T01:33:16.680Z,7.20
2023-05-19T01:35:45.767Z,7.90
2023-05-19T01:38:15.278Z,6.97
2023-05-19T01:40:43.819Z,7.22
2023-05-19T01:43:14.990Z,7.07
2023-05-19T01:45:42.179Z,7.38
2023-05-19T01:48:11.117Z,7.32
2023-05-19T01:50:40.293Z,6.63
2023-05-19T01:53:07.515Z,6.90
2023-05-19T01:55:41.610Z,7.82
2023-05-19T01:58:37.346Z,7.63
2023-05-19T02:01:20.100Z,7.97
2023-05-19T02:03:58.992Z,7.93
2023-05-19T02:06:42.077Z,8.90
2023-05-19T02:09:25.458Z,7.68
2023-05-19T02:12:02.812Z,7.65
2023-05-19T02:14:38.933Z,7.72
2023-05-19T02:17:06.331Z,7.88
2023-05-19T02:19:37.001Z,8.13
2023-05-19T02:22:03.843Z,7.32
2023-05-19T02:24:30.848Z,7.97
2023-05-19T02:26:59.524Z,7.60
2023-05-19T02:29:26.591Z,8.25
2023-05-19T02:31:53.357Z,8.50
2023-05-19T02:34:20.974Z,8.32
2023-05-19T02:36:49.820Z,8.30
2023-05-19T02:39:16.774Z,8.65
2023-05-19T02:41:43.473Z,8.07
2023-05-19T02:44:10.191Z,7.18
2023-05-19T02:46:37.234Z,7.07
2023-05-19T02:49:04.183Z,7.70
2023-05-19T02:51:30.967Z,8.23
2023-05-19T02:53:57.729Z,7.43
2023-05-19T02:56:24.608Z,7.38
2023-05-19T02:58:52.657Z,7.75
2023-05-19T03:01:22.084Z,7.72
2023-05-19T03:03:48.951Z,7.43
2023-05-19T03:06:17.986Z,7.43
2023-05-19T03:08:45.108Z,8.40
2023-05-19T03:11:11.914Z,8.13
2023-05-19T03:13:38.861Z,7.80
2023-05-19T03:16:08.099Z,7.68
2023-05-19T03:18:35.237Z,7.68
2023-05-19T03:21:01.964Z,7.40
2023-05-19T03:23:28.729Z,7.45
2023-05-19T03:25:56.292Z,7.88
2023-05-19T03:28:23.463Z,7.80
2023-05-19T03:30:50.750Z,7.60
2023-05-19T03:33:20.047Z,8.38
2023-05-19T03:35:46.973Z,6.68
2023-05-19T03:38:14.740Z,6.82
2023-05-19T03:40:48.952Z,7.50
2023-05-19T03:43:16.249Z,7.00
2023-05-19T03:45:50.094Z,6.93
2023-05-19T03:48:35.550Z,7.38
2023-05-19T03:51:22.533Z,6.88
2023-05-19T03:53:52.584Z,6.50
2023-05-19T03:56:20.674Z,7.55
2023-05-19T03:58:49.668Z,7.70
2023-05-19T04:01:16.458Z,7.80
2023-05-19T04:03:43.366Z,7.18
2023-05-19T04:06:10.788Z,7.18
2023-05-19T04:08:37.492Z,7.28
2023-05-19T04:11:04.346Z,7.03
2023-05-19T04:13:33.704Z,6.72
2023-05-19T04:16:01.065Z,7.10
2023-05-19T04:20:56.339Z,7.53
2023-05-19T04:23:23.092Z,7.32
2023-05-19T04:25:50.068Z,7.40
2023-05-19T04:28:17.822Z,6.90
2023-05-19T04:30:46.495Z,6.88
2023-05-19T04:33:13.703Z,7.40
2023-05-19T04:35:40.748Z,7.50
2023-05-19T04:38:10.038Z,7.28
2023-05-19T04:40:37.459Z,7.57
2023-05-19T04:43:04.239Z,8.55
2023-05-19T04:45:33.032Z,7.38
2023-05-19T04:48:01.894Z,8.32
2023-05-19T04:52:59.155Z,7.90
2023-05-19T04:55:26.615Z,7.63
2023-05-19T04:57:53.815Z,8.23
2023-05-19T05:00:21.706Z,7.35
2023-05-19T05:02:58.950Z,7.53
2023-05-19T05:05:28.437Z,8.45
2023-05-19T05:07:55.580Z,6.78
2023-05-19T05:10:24.671Z,7.07
2023-05-19T05:15:19.049Z,6.93
2023-05-19T05:17:49.163Z,7.05
2023-05-19T05:20:17.067Z,7.63
2023-05-19T05:22:44.047Z,7.57
2023-05-19T05:25:13.359Z,6.63
2023-05-19T05:27:40.282Z,6.90
2023-05-19T05:30:08.865Z,6.97
2023-05-19T05:32:36.841Z,7.20
2023-05-19T05:35:10.093Z,6.88
2023-05-19T05:37:38.068Z,7.40
2023-05-19T05:40:06.995Z,6.90
2023-05-19T05:42:34.624Z,7.47
2023-05-19T05:45:01.442Z,7.55
2023-05-19T05:47:28.535Z,7.05
2023-05-19T05:49:55.583Z,7.00
2023-05-19T05:52:25.868Z,8.75
2023-05-19T05:54:53.038Z,6.25
2023-05-19T05:57:20.830Z,6.80
2023-05-19T05:59:48.068Z,6.35
2023-05-19T06:02:15.375Z,6.82
2023-05-19T06:04:42.252Z,6.53
2023-05-19T06:07:09.073Z,7.00
2023-05-19T06:09:38.167Z,7.75
2023-05-19T06:12:06.801Z,7.00
2023-05-19T06:14:38.742Z,6.38
2023-05-19T06:17:14.293Z,6.53
2023-05-19T06:19:41.260Z,6.03
2023-05-19T06:22:07.959Z,7.07
2023-05-19T06:24:34.708Z,6.20
2023-05-19T06:27:02.006Z,6.95
2023-05-19T06:29:28.720Z,7.18
2023-05-19T06:31:59.047Z,6.38
2023-05-19T06:36:53.613Z,6.40
2023-05-19T06:39:20.396Z,6.13
2023-05-19T06:41:47.164Z,6.20
2023-05-19T06:44:27.221Z,6.40
2023-05-19T06:46:53.939Z,6.05
2023-05-19T06:49:20.970Z,6.38
2023-05-19T06:51:49.174Z,6.10
2023-05-19T06:54:16.329Z,5.43
2023-05-19T06:56:43.147Z,5.97
2023-05-19T07:01:37.978Z,6.15
2023-05-19T07:04:05.063Z,6.25
2023-05-19T07:06:31.940Z,6.47
2023-05-19T07:08:58.762Z,5.90
2023-05-19T07:11:26.449Z,6.38
2023-05-19T07:13:53.736Z,6.63
2023-05-19T07:16:26.329Z,6.85
2023-05-19T07:18:54.984Z,6.22
2023-05-19T07:21:21.792Z,7.13
2023-05-19T07:23:49.948Z,6.68
2023-05-19T07:26:16.820Z,6.28
2023-05-19T07:28:43.585Z,6.25
2023-05-19T07:31:10.356Z,6.57
2023-05-19T07:33:37.078Z,5.88
2023-05-19T07:36:04.475Z,6.05
2023-05-19T07:41:02.498Z,6.40
2023-05-19T07:43:29.328Z,6.13
2023-05-19T07:45:56.457Z,5.47
2023-05-19T07:48:25.555Z,5.88
2023-05-19T07:50:53.084Z,5.50
2023-05-19T07:53:20.403Z,5.80
2023-05-19T07:58:13.878Z,6.03
2023-05-19T08:00:43.058Z,6.10
2023-05-19T08:03:10.368Z,5.57
2023-05-19T08:05:37.312Z,5.45
2023-05-19T08:08:04.315Z,4.80
2023-05-19T08:10:31.431Z,5.13
2023-05-19T08:15:25.389Z,5.20
2023-05-19T08:17:52.481Z,5.72
2023-05-19T08:20:19.334Z,6.15
2023-05-19T08:22:46.033Z,6.85
2023-05-19T08:25:13.758Z,7.30
2023-05-19T08:27:40.560Z,6.70
2023-05-19T08:30:08.078Z,6.30
2023-05-19T08:32:34.900Z,6.35
2023-05-19T08:35:01.649Z,7.10
2023-05-19T08:37:28.414Z,6.85
2023-05-19T08:39:55.140Z,6.28
2023-05-19T08:42:21.849Z,5.70
2023-05-19T08:44:48.715Z,5.95
2023-05-19T08:47:15.863Z,7.45
2023-05-19T08:49:46.715Z,6.38
2023-05-19T08:52:31.331Z,6.45
2023-05-19T08:55:09.559Z,6.55
2023-05-19T08:57:38.066Z,6.18
2023-05-19T09:00:09.492Z,6.70
2023-05-19T09:02:46.616Z,6.32
2023-05-19T09:05:23.021Z,6.97
2023-05-19T09:07:49.752Z,6.47
2023-05-19T09:10:16.601Z,6.55
2023-05-19T09:12:45.904Z,6.63
2023-05-19T09:15:13.005Z,6.18
2023-05-19T09:17:40.553Z,6.43
2023-05-19T09:20:11.114Z,6.13
2023-05-19T09:22:47.551Z,6.38
2023-05-19T09:25:23.643Z,6.25
2023-05-19T09:27:50.991Z,5.85
2023-05-19T09:30:18.416Z,6.43
2023-05-19T09:32:47.120Z,5.97
2023-05-19T09:35:17.011Z,6.65
2023-05-19T09:37:44.115Z,5.15
2023-05-19T09:40:13.610Z,5.90
2023-05-19T09:42:41.583Z,5.53
2023-05-19T09:45:09.401Z,5.78
2023-05-19T09:47:38.277Z,5.40
2023-05-19T09:50:12.331Z,5.20
2023-05-19T09:52:40.917Z,5.32
2023-05-19T09:55:11.461Z,5.78
2023-05-19T09:57:40.147Z,5.30
2023-05-19T10:00:13.577Z,6.38
2023-05-19T10:02:43.632Z,5.30
2023-05-19T10:05:19.772Z,5.03
2023-05-19T10:07:49.869Z,5.10
2023-05-19T10:10:17.040Z,5.38
2023-05-19T10:12:44.037Z,5.43
2023-05-19T10:15:20.015Z,5.85
2023-05-19T10:17:49.915Z,5.25
2023-05-19T10:20:17.834Z,5.68
2023-05-19T10:22:46.650Z,5.63
2023-05-19T10:25:20.030Z,5.22
2023-05-19T10:27:56.778Z,5.05
2023-05-19T10:30:29.391Z,5.93
2023-05-19T10:32:57.378Z,4.85
2023-05-19T10:35:24.088Z,5.68
2023-05-19T10:38:09.391Z,5.63
2023-05-19T10:41:00.978Z,5.25
2023-05-19T10:43:38.951Z,5.60
2023-05-19T10:46:06.359Z,5.43
2023-05-19T10:48:37.270Z,5.07
2023-05-19T10:51:07.073Z,5.35
2023-05-19T10:53:34.911Z,5.30
2023-05-19T10:56:03.941Z,5.57
2023-05-19T10:58:43.465Z,4.82
2023-05-19T11:01:14.910Z,5.53
2023-05-19T11:03:53.156Z,6.38
2023-05-19T11:06:21.292Z,5.60
2023-05-19T11:09:00.823Z,4.90
2023-05-19T11:11:47.487Z,4.95
2023-05-19T11:14:17.006Z,5.63
2023-05-19T11:16:47.912Z,5.55
2023-05-19T11:19:31.211Z,5.70
2023-05-19T11:22:11.781Z,5.63
2023-05-19T11:24:42.060Z,5.88
2023-05-19T11:27:32.522Z,5.55
2023-05-19T11:30:00.045Z,4.90
2023-05-19T11:32:33.323Z,5.07
2023-05-19T11:35:00.898Z,5.35
2023-05-19T11:37:31.233Z,5.45
2023-05-19T11:40:01.169Z,5.40
2023-05-19T11:42:27.864Z,5.70
2023-05-19T11:44:57.668Z,5.82
2023-05-19T11:47:24.457Z,5.97
2023-05-19T11:49:54.816Z,5.88
2023-05-19T11:52:23.203Z,5.72
2023-05-19T11:54:50.613Z,5.63
2023-05-19T11:57:17.848Z,6.35
2023-05-19T12:02:39.132Z,5.47
2023-05-19T12:05:06.299Z,5.68
2023-05-19T12:07:33.045Z,5.95
2023-05-19T12:10:00.170Z,6.32
2023-05-19T12:12:29.752Z,5.82
2023-05-19T12:14:56.958Z,6.13
2023-05-19T12:19:51.544Z,5.55
2023-05-19T12:24:46.273Z,5.82
2023-05-19T12:27:16.828Z,6.00
2023-05-19T12:29:43.766Z,6.28
2023-05-19T12:32:10.537Z,6.13
2023-05-19T12:34:38.447Z,6.05
2023-05-19T12:37:06.199Z,6.57
2023-05-19T12:39:33.865Z,5.90
2023-05-19T12:42:07.800Z,6.30
2023-05-19T12:44:39.226Z,6.20
2023-05-19T12:47:07.129Z,6.53
2023-05-19T12:49:34.559Z,5.80
2023-05-19T12:52:06.094Z,6.75
2023-05-19T12:54:36.093Z,6.40
2023-05-19T12:57:05.585Z,6.10
2023-05-19T12:59:38.752Z,6.63
2023-05-19T13:02:06.662Z,5.80
2023-05-19T13:04:33.583Z,5.47
2023-05-19T13:07:00.380Z,5.97
2023-05-19T13:09:27.832Z,6.28
2023-05-19T13:11:54.762Z,6.38
2023-05-19T13:14:22.007Z,7.00
2023-05-19T13:16:48.893Z,7.05
2023-05-19T13:19:25.258Z,6.68
2023-05-19T13:21:52.711Z,6.20
2023-05-19T13:24:19.484Z,6.55
2023-05-19T13:26:46.271Z,6.38
2023-05-19T13:29:13.002Z,6.55
2023-05-19T13:31:39.720Z,7.88
2023-05-19T13:34:06.954Z,7.07
2023-05-19T13:36:34.876Z,7.70
2023-05-19T13:39:01.666Z,8.23
2023-05-19T13:41:31.048Z,7.15
2023-05-19T13:43:59.300Z,7.18
2023-05-19T13:46:36.608Z,7.57
2023-05-19T13:49:11.261Z,7.90
2023-05-19T13:51:38.010Z,7.90
2023-05-19T13:54:05.034Z,6.70
2023-05-19T13:56:31.940Z,7.53
2023-05-19T13:58:58.994Z,7.03
2023-05-19T14:01:25.793Z,6.82
2023-05-19T14:03:53.060Z,7.68
2023-05-19T14:08:46.720Z,6.80
2023-05-19T14:11:19.683Z,7.57
2023-05-19T14:13:52.359Z,6.32
2023-05-19T14:16:21.862Z,7.50
2023-05-19T14:18:49.325Z,7.57
2023-05-19T14:21:16.190Z,6.72
2023-05-19T14:23:42.884Z,7.00
2023-05-19T14:26:09.887Z,7.40
2023-05-19T14:28:36.594Z,7.35
2023-05-19T14:31:03.555Z,7.22
2023-05-19T14:33:34.900Z,7.72
2023-05-19T14:36:02.357Z,8.02
2023-05-19T14:38:29.581Z,7.35
2023-05-19T14:40:56.783Z,7.90
2023-05-19T14:43:23.571Z,7.93
2023-05-19T14:45:50.321Z,7.70
2023-05-19T14:48:17.714Z,7.47
2023-05-19T14:50:44.858Z,7.95
2023-05-19T14:53:11.751Z,8.57
2023-05-19T14:55:38.541Z,7.97
2023-05-19T14:58:15.881Z,8.45
2023-05-19T15:00:52.283Z,8.70
2023-05-19T15:03:19.635Z,7.72
2023-05-19T15:08:13.321Z,8.02
2023-05-19T15:10:40.072Z,8.10
2023-05-19T15:13:06.897Z,7.53
2023-05-19T15:15:33.696Z,7.78
2023-05-19T15:18:00.557Z,7.40
2023-05-19T15:20:29.445Z,8.10
2023-05-19T15:22:56.363Z,7.72
2023-05-19T15:25:23.115Z,7.93
2023-05-19T15:27:49.847Z,8.02
2023-05-19T15:30:16.630Z,7.82
2023-05-19T15:32:43.415Z,7.70
2023-05-19T15:35:10.289Z,8.05
2023-05-19T15:37:37.026Z,8.10
2023-05-19T15:40:04.457Z,8.02
2023-05-19T15:42:31.226Z,8.57
2023-05-19T15:44:57.924Z,7.32
2023-05-19T15:47:24.629Z,7.82
2023-05-19T15:49:51.491Z,8.18
2023-05-19T15:52:18.223Z,7.90
2023-05-19T15:54:45.009Z,7.75
2023-05-19T15:57:13.432Z,7.53
2023-05-19T15:59:40.267Z,7.97
2023-05-19T16:02:07.356Z,8.35
2023-05-19T16:04:34.173Z,8.50
2023-05-19T16:07:00.925Z,7.95
2023-05-19T16:09:27.711Z,8.10
2023-05-19T16:11:54.440Z,9.13
2023-05-19T16:14:21.122Z,8.20
2023-05-19T16:16:47.902Z,8.57
2023-05-19T16:19:14.687Z,9.40
2023-05-19T16:21:41.460Z,8.15
2023-05-19T16:24:08.198Z,7.80
2023-05-19T16:26:34.912Z,8.75
2023-05-19T16:29:01.621Z,7.80
2023-05-19T16:31:28.427Z,8.45
2023-05-19T16:33:55.287Z,7.90
2023-05-19T16:36:22.797Z,7.80
2023-05-19T16:38:49.566Z,8.35
2023-05-19T16:41:16.273Z,9.38
2023-05-19T16:43:43.020Z,9.02
2023-05-19T16:46:12.024Z,8.43
2023-05-19T16:48:38.956Z,8.48
2023-05-19T16:51:05.731Z,8.00
2023-05-19T16:53:32.636Z,9.82
2023-05-19T16:55:59.350Z,9.77
2023-05-19T16:58:27.937Z,11.05
2023-05-19T17:00:56.817Z,9.18
2023-05-19T17:03:24.010Z,9.25
2023-05-19T17:05:51.053Z,9.82
2023-05-19T17:08:17.852Z,8.55
2023-05-19T17:10:44.871Z,9.77
2023-05-19T17:13:11.790Z,10.52
2023-05-19T17:15:39.333Z,10.90
2023-05-19T17:18:07.131Z,10.68
2023-05-19T17:20:34.022Z,9.77
2023-05-19T17:23:01.078Z,10.27
2023-05-19T17:25:27.783Z,11.63
2023-05-19T17:27:55.686Z,10.23
2023-05-19T17:30:22.473Z,10.73
2023-05-19T17:32:49.418Z,11.15
2023-05-19T17:35:16.462Z,10.60
2023-05-19T17:37:43.211Z,11.27
2023-05-19T17:40:10.749Z,11.60
2023-05-19T17:42:37.437Z,11.73
2023-05-19T17:45:07.426Z,11.55
2023-05-19T17:47:34.509Z,11.57
2023-05-19T17:50:01.492Z,12.20
2023-05-19T17:52:28.537Z,11.55
2023-05-19T17:54:55.592Z,11.30
2023-05-19T17:57:25.759Z,10.57
2023-05-19T17:59:52.849Z,11.40
2023-05-19T18:02:19.823Z,10.38
2023-05-19T18:04:46.839Z,10.82
2023-05-19T18:07:14.322Z,10.80
2023-05-19T18:09:45.644Z,10.63
2023-05-19T18:12:12.532Z,10.07
2023-05-19T18:14:39.679Z,10.02
2023-05-19T18:17:06.489Z,10.20
2023-05-19T18:19:33.208Z,10.75
2023-05-19T18:22:00.123Z,10.20
2023-05-19T18:24:26.995Z,10.85
2023-05-19T18:26:53.755Z,10.60
2023-05-19T18:29:20.483Z,10.77
2023-05-19T18:31:47.313Z,10.70
2023-05-19T18:34:14.207Z,10.65
2023-05-19T18:36:41.333Z,12.20
2023-05-19T18:39:08.065Z,14.00
2023-05-19T18:41:37.304Z,11.75
2023-05-19T18:44:05.894Z,11.60
2023-05-19T18:46:33.606Z,11.80
2023-05-19T18:49:00.501Z,11.30
2023-05-19T18:51:27.294Z,11.95
2023-05-19T18:53:53.983Z,10.70
2023-05-19T18:56:27.502Z,11.15
2023-05-19T18:58:54.658Z,11.38
2023-05-19T19:01:21.410Z,11.82
2023-05-19T19:03:49.229Z,11.57
2023-05-19T19:06:23.355Z,11.13
2023-05-19T19:08:50.467Z,11.48
2023-05-19T19:11:17.248Z,11.23
2023-05-19T19:13:44.009Z,10.98
2023-05-19T19:16:11.052Z,12.60
2023-05-19T19:18:37.833Z,12.45
2023-05-19T19:21:05.875Z,11.60
2023-05-19T19:23:33.014Z,11.77
2023-05-19T19:26:00.150Z,12.18
2023-05-19T19:28:26.934Z,12.43
2023-05-19T19:30:53.702Z,12.43
2023-05-19T19:33:20.602Z,12.40
2023-05-19T19:35:47.378Z,12.30
2023-05-19T19:38:14.145Z,11.27
2023-05-19T19:40:40.999Z,12.38
2023-05-19T19:43:07.751Z,12.25
2023-05-19T19:45:34.902Z,11.85
2023-05-19T19:48:01.832Z,11.93
2023-05-19T19:50:28.663Z,12.07
2023-05-19T19:52:55.427Z,12.73
2023-05-19T19:55:22.155Z,12.52
2023-05-19T19:57:51.013Z,12.55
2023-05-19T20:00:18.496Z,13.27
2023-05-19T20:03:02.948Z,12.63
2023-05-19T20:05:31.562Z,13.10
2023-05-19T20:07:58.422Z,13.02
2023-05-19T20:10:25.200Z,15.25
2023-05-19T20:12:52.141Z,14.55
2023-05-19T20:15:19.543Z,14.27
2023-05-19T20:20:13.386Z,19.35
2023-05-19T20:22:40.212Z,13.73
2023-05-19T20:25:07.349Z,13.40
2023-05-19T20:27:34.193Z,12.43
2023-05-19T20:30:00.934Z,12.38
2023-05-19T20:32:27.653Z,12.00
2023-05-19T20:34:54.422Z,13.55
2023-05-19T20:37:22.104Z,13.15
2023-05-19T20:39:48.950Z,11.75
2023-05-19T20:42:15.981Z,13.05
2023-05-19T20:44:42.856Z,12.85
2023-05-19T20:47:09.639Z,13.63
2023-05-19T20:49:36.475Z,12.75
2023-05-19T20:52:03.481Z,13.60
2023-05-19T20:54:30.479Z,12.02
2023-05-19T20:56:57.165Z,12.40
2023-05-19T20:59:23.868Z,12.13
2023-05-19T21:01:50.815Z,13.23
2023-05-19T21:04:17.626Z,12.30
2023-05-19T21:06:44.439Z,12.90
2023-05-19T21:09:11.314Z,14.52
2023-05-19T21:11:38.044Z,15.43
2023-05-19T21:14:04.819Z,17.73
2023-05-19T21:16:32.104Z,15.25
2023-05-19T21:21:26.140Z,13.23
2023-05-19T21:23:52.972Z,13.52
2023-05-19T21:26:19.704Z,13.88
2023-05-19T21:28:46.391Z,13.27
2023-05-19T21:31:13.258Z,13.07
2023-05-19T21:33:40.043Z,12.63
2023-05-19T21:36:07.332Z,13.20
2023-05-19T21:38:34.085Z,14.15
2023-05-19T21:41:00.834Z,13.10
2023-05-19T21:43:27.632Z,12.98
2023-05-19T21:45:54.332Z,13.35
2023-05-19T21:48:21.652Z,13.57
2023-05-19T21:53:21.539Z,14.07
2023-05-19T21:55:48.434Z,15.60
2023-05-19T21:58:15.214Z,13.57
2023-05-19T22:00:42.014Z,13.52
2023-05-19T22:03:08.887Z,13.63
2023-05-19T22:05:37.948Z,14.52
2023-05-19T22:08:04.849Z,12.88
2023-05-19T22:10:32.049Z,13.52
2023-05-19T22:15:26.592Z,12.98
2023-05-19T22:17:53.378Z,12.88
2023-05-19T22:20:20.493Z,12.27
2023-05-19T22:22:47.219Z,12.65
2023-05-19T22:25:14.059Z,13.32
2023-05-19T22:27:40.771Z,13.45
2023-05-19T22:30:08.006Z,12.27
2023-05-19T22:32:35.170Z,13.15
2023-05-19T22:35:01.994Z,12.38
2023-05-19T22:37:28.973Z,12.80
2023-05-19T22:39:55.841Z,13.05
2023-05-19T22:42:22.533Z,12.75
2023-05-19T22:44:49.302Z,13.70
2023-05-19T22:47:16.308Z,13.20
2023-05-19T22:49:43.354Z,13.63
2023-05-19T22:52:11.637Z,13.98
2023-05-19T22:54:38.391Z,14.75
2023-05-19T22:57:05.467Z,13.60
2023-05-19T22:59:32.312Z,15.02
2023-05-19T23:01:59.002Z,14.68
2023-05-19T23:04:25.999Z,14.57
2023-05-19T23:06:52.877Z,14.30
2023-05-19T23:09:19.706Z,14.50
2023-05-19T23:11:46.505Z,12.55
2023-05-19T23:14:13.492Z,13.18
2023-05-19T23:16:40.311Z,12.48
2023-05-19T23:19:07.336Z,12.43
2023-05-19T23:21:34.074Z,11.75
2023-05-19T23:24:00.928Z,12.80
2023-05-19T23:26:27.672Z,12.07
2023-05-19T23:28:54.498Z,12.00
2023-05-19T23:31:21.244Z,12.55
2023-05-19T23:33:47.954Z,11.02
2023-05-19T23:36:14.694Z,11.55
2023-05-19T23:38:41.469Z,11.85
2023-05-19T23:41:08.296Z,11.07
2023-05-19T23:43:35.011Z,10.43
2023-05-19T23:46:01.868Z,10.85
2023-05-19T23:48:29.016Z,11.38
2023-05-19T23:50:56.796Z,11.93
2023-05-19T23:53:23.690Z,10.25
2023-05-19T23:55:51.393Z,11.15
2023-05-19T23:58:18.470Z,12.18
